createdAt,value
2018-08-12T00:01:40.638Z,2.50
2018-08-12T00:04:09.212Z,2.47
2018-08-12T00:06:37.970Z,2.50
2018-08-12T00:09:09.369Z,2.50
2018-08-12T00:11:37.979Z,2.53
2018-08-12T00:14:06.760Z,2.73
2018-08-12T00:16:35.961Z,3.40
2018-08-12T00:19:04.760Z,3.23
2018-08-12T00:21:33.570Z,4.80
2018-08-12T00:24:02.096Z,2.97
2018-08-12T00:26:30.698Z,3.17
2018-08-12T00:28:59.423Z,3.37
2018-08-12T00:31:27.933Z,3.30
2018-08-12T00:33:56.657Z,2.80
2018-08-12T00:36:25.309Z,3.03
2018-08-12T00:38:53.961Z,2.77
2018-08-12T00:41:22.492Z,2.80
2018-08-12T00:43:51.138Z,3.00
2018-08-12T00:46:19.949Z,2.97
2018-08-12T00:48:48.628Z,2.70
2018-08-12T00:51:17.327Z,2.90
2018-08-12T00:53:45.922Z,3.07
2018-08-12T00:56:14.447Z,2.70
2018-08-12T00:58:43.195Z,2.83
2018-08-12T01:01:12.076Z,2.83
2018-08-12T01:03:40.589Z,3.40
2018-08-12T01:06:09.329Z,2.97
2018-08-12T01:08:38.013Z,3.13
2018-08-12T01:11:07.040Z,3.00
2018-08-12T01:13:35.905Z,3.00
2018-08-12T01:16:04.840Z,3.10
2018-08-12T01:18:33.584Z,3.57
2018-08-12T01:21:02.112Z,3.20
2018-08-12T01:23:30.822Z,3.10
2018-08-12T01:25:59.568Z,3.10
2018-08-12T01:28:28.082Z,3.27
2018-08-12T01:30:56.845Z,4.03
2018-08-12T01:33:25.501Z,3.03
2018-08-12T01:35:54.304Z,2.93
2018-08-12T01:38:22.758Z,3.10
2018-08-12T01:40:51.321Z,3.00
2018-08-12T01:43:20.089Z,2.77
2018-08-12T01:45:48.943Z,3.27
2018-08-12T01:48:17.433Z,2.90
2018-08-12T01:50:46.227Z,3.37
2018-08-12T01:53:20.634Z,3.03
2018-08-12T01:55:49.606Z,3.60
2018-08-12T01:58:18.151Z,3.50
2018-08-12T02:00:46.868Z,3.73
2018-08-12T02:03:15.534Z,3.50
2018-08-12T02:05:44.901Z,3.20
2018-08-12T02:08:13.521Z,3.13
2018-08-12T02:10:42.110Z,3.80
2018-08-12T02:13:10.867Z,3.87
2018-08-12T02:15:39.525Z,3.73
2018-08-12T02:18:08.363Z,3.17
2018-08-12T02:20:37.085Z,3.53
2018-08-12T02:23:05.705Z,5.83
2018-08-12T02:25:34.398Z,3.20
2018-08-12T02:28:02.925Z,3.60
2018-08-12T02:30:31.617Z,4.00
2018-08-12T02:33:00.350Z,3.67
2018-08-12T02:35:29.046Z,3.30
2018-08-12T02:37:57.788Z,3.03
2018-08-12T02:40:26.521Z,3.20
2018-08-12T02:42:55.165Z,3.20
2018-08-12T02:45:23.761Z,3.50
2018-08-12T02:47:52.563Z,3.43
2018-08-12T02:50:21.251Z,3.60
2018-08-12T02:52:49.858Z,3.70
2018-08-12T02:55:18.428Z,3.57
2018-08-12T02:57:47.087Z,3.37
2018-08-12T03:00:15.833Z,3.33
2018-08-12T03:02:44.497Z,3.30
2018-08-12T03:05:13.301Z,3.23
2018-08-12T03:07:41.925Z,3.10
2018-08-12T03:10:10.475Z,3.80
2018-08-12T03:12:39.285Z,3.50
2018-08-12T03:15:09.421Z,3.30
2018-08-12T03:17:38.266Z,4.03
2018-08-12T03:20:08.654Z,3.53
2018-08-12T03:22:37.446Z,3.33
2018-08-12T03:25:07.602Z,3.33
2018-08-12T03:27:36.445Z,3.70
2018-08-12T03:30:06.833Z,3.13
2018-08-12T03:32:35.433Z,3.43
2018-08-12T03:35:04.072Z,3.07
2018-08-12T03:37:32.673Z,3.17
2018-08-12T03:40:01.620Z,3.30
2018-08-12T03:42:30.687Z,3.73
2018-08-12T03:44:59.441Z,3.17
2018-08-12T03:47:28.184Z,3.37
2018-08-12T03:49:56.745Z,2.90
2018-08-12T03:52:26.046Z,3.07
2018-08-12T03:54:55.010Z,3.80
2018-08-12T03:57:23.805Z,3.30
2018-08-12T03:59:52.744Z,3.70
2018-08-12T04:02:22.095Z,3.10
2018-08-12T04:04:50.931Z,3.10
2018-08-12T04:07:19.928Z,3.07
2018-08-12T04:09:48.593Z,3.10
2018-08-12T04:12:17.157Z,3.30
2018-08-12T04:14:46.042Z,3.60
2018-08-12T04:17:15.005Z,3.13
2018-08-12T04:19:43.478Z,3.10
2018-08-12T04:22:12.026Z,3.03
2018-08-12T04:24:40.481Z,3.27
2018-08-12T04:27:08.980Z,3.23
2018-08-12T04:29:37.453Z,3.53
2018-08-12T04:32:05.994Z,3.03
2018-08-12T04:34:34.468Z,3.57
2018-08-12T04:37:03.050Z,3.13
2018-08-12T04:39:31.819Z,2.90
2018-08-12T04:42:00.404Z,3.10
2018-08-12T04:44:28.909Z,3.10
2018-08-12T04:46:57.433Z,3.40
2018-08-12T04:49:25.977Z,3.17
2018-08-12T04:51:54.529Z,4.10
2018-08-12T04:54:23.026Z,3.07
2018-08-12T04:56:51.557Z,3.03
2018-08-12T04:59:20.045Z,3.23
2018-08-12T05:01:48.524Z,2.80
2018-08-12T05:04:17.025Z,3.20
2018-08-12T05:06:45.557Z,3.73
2018-08-12T05:09:14.118Z,3.10
2018-08-12T05:11:42.593Z,2.80
2018-08-12T05:14:11.125Z,3.30
2018-08-12T05:16:39.636Z,3.67
2018-08-12T05:19:08.150Z,3.27
2018-08-12T05:21:36.693Z,3.67
2018-08-12T05:24:05.291Z,3.27
2018-08-12T05:26:33.781Z,3.00
2018-08-12T05:29:02.309Z,3.97
2018-08-12T05:31:30.844Z,3.60
2018-08-12T05:33:59.393Z,3.70
2018-08-12T05:36:27.912Z,4.00
2018-08-12T05:38:56.428Z,3.83
2018-08-12T05:41:24.961Z,3.47
2018-08-12T05:43:55.217Z,3.47
2018-08-12T05:46:23.802Z,3.73
2018-08-12T05:48:52.316Z,4.20
2018-08-12T05:51:22.560Z,3.63
2018-08-12T05:53:51.136Z,4.00
2018-08-12T05:56:19.713Z,4.53
2018-08-12T05:58:48.225Z,5.37
2018-08-12T06:01:16.748Z,4.10
2018-08-12T06:03:45.589Z,4.10
2018-08-12T06:06:16.980Z,3.80
2018-08-12T06:08:45.574Z,3.87
2018-08-12T06:11:14.093Z,3.50
2018-08-12T06:13:42.626Z,3.90
2018-08-12T06:16:11.133Z,3.60
2018-08-12T06:18:39.674Z,5.43
2018-08-12T06:21:08.158Z,4.87
2018-08-12T06:23:36.728Z,3.13
2018-08-12T06:26:05.243Z,3.40
2018-08-12T06:28:33.769Z,3.33
2018-08-12T06:31:02.252Z,3.33
2018-08-12T06:33:30.940Z,3.40
2018-08-12T06:35:59.425Z,3.20
2018-08-12T06:38:27.966Z,2.90
2018-08-12T06:40:56.474Z,3.27
2018-08-12T06:43:24.969Z,2.90
2018-08-12T06:45:53.453Z,2.87
2018-08-12T06:48:22.008Z,2.70
2018-08-12T06:50:50.591Z,3.27
2018-08-12T06:53:19.088Z,2.73
2018-08-12T06:55:47.581Z,2.53
2018-08-12T06:58:16.124Z,2.50
2018-08-12T07:00:44.617Z,2.87
2018-08-12T07:03:13.105Z,2.90
2018-08-12T07:05:41.597Z,2.57
2018-08-12T07:08:10.115Z,2.70
2018-08-12T07:10:38.636Z,2.60
2018-08-12T07:13:07.169Z,2.77
2018-08-12T07:15:35.696Z,2.90
2018-08-12T07:18:04.848Z,3.83
2018-08-12T07:20:33.375Z,2.90
2018-08-12T07:23:01.885Z,2.80
2018-08-12T07:25:30.386Z,2.27
2018-08-12T07:27:58.884Z,2.20
2018-08-12T07:30:27.380Z,2.77
2018-08-12T07:32:55.889Z,2.40
2018-08-12T07:35:24.348Z,3.03
2018-08-12T07:37:52.836Z,1.90
2018-08-12T07:40:21.968Z,1.80
2018-08-12T07:42:51.249Z,1.80
2018-08-12T07:45:19.861Z,1.85
2018-08-12T07:47:48.408Z,2.00
2018-08-12T07:50:16.953Z,2.92
2018-08-12T07:52:45.972Z,1.87
2018-08-12T07:55:15.113Z,2.05
2018-08-12T07:57:44.412Z,2.12
2018-08-12T08:00:19.189Z,2.90
2018-08-12T08:02:47.836Z,2.22
2018-08-12T08:05:16.348Z,2.20
2018-08-12T08:07:44.865Z,2.30
2018-08-12T08:10:16.137Z,2.10
2018-08-12T08:12:44.685Z,2.55
2018-08-12T08:15:22.477Z,2.00
2018-08-12T08:17:50.984Z,2.60
2018-08-12T08:20:19.492Z,2.40
2018-08-12T08:22:47.998Z,2.15
2018-08-12T08:25:16.570Z,2.27
2018-08-12T08:27:45.009Z,2.83
2018-08-12T08:30:15.166Z,2.00
2018-08-12T08:32:43.732Z,2.35
2018-08-12T08:35:13.052Z,1.90
2018-08-12T08:37:41.820Z,3.35
2018-08-12T08:40:13.089Z,2.10
2018-08-12T08:42:41.572Z,1.90
2018-08-12T08:45:15.273Z,1.85
2018-08-12T08:47:45.265Z,3.47
2018-08-12T08:50:13.784Z,2.00
2018-08-12T08:52:42.561Z,4.30
2018-08-12T08:55:12.174Z,1.82
2018-08-12T08:57:41.555Z,1.60
2018-08-12T09:00:12.592Z,1.98
2018-08-12T09:02:41.790Z,1.82
2018-08-12T09:05:12.051Z,1.42
2018-08-12T09:07:41.103Z,1.55
2018-08-12T09:10:11.337Z,1.72
2018-08-12T09:12:39.817Z,1.45
2018-08-12T09:15:10.397Z,1.55
2018-08-12T09:17:39.221Z,1.98
2018-08-12T09:20:09.744Z,1.92
2018-08-12T09:22:38.301Z,1.47
2018-08-12T09:25:07.938Z,1.40
2018-08-12T09:27:36.725Z,1.50
2018-08-12T09:30:08.252Z,1.90
2018-08-12T09:32:36.688Z,1.67
2018-08-12T09:35:05.549Z,1.40
2018-08-12T09:37:34.908Z,1.50
2018-08-12T09:40:03.445Z,1.77
2018-08-12T09:42:32.342Z,1.45
2018-08-12T09:45:00.861Z,1.37
2018-08-12T09:47:29.329Z,1.40
2018-08-12T09:49:57.797Z,1.65
2018-08-12T09:52:26.293Z,1.57
2018-08-12T09:54:54.788Z,1.10
2018-08-12T09:57:23.284Z,1.82
2018-08-12T09:59:52.457Z,1.67
2018-08-12T10:02:21.017Z,1.10
2018-08-12T10:04:54.418Z,1.12
2018-08-12T10:07:22.892Z,2.15
2018-08-12T10:09:51.342Z,1.30
2018-08-12T10:12:19.885Z,1.62
2018-08-12T10:14:48.316Z,1.27
2018-08-12T10:17:16.829Z,1.65
2018-08-12T10:19:45.318Z,1.40
2018-08-12T10:22:13.862Z,1.65
2018-08-12T10:24:42.341Z,0.98
2018-08-12T10:27:10.828Z,1.17
2018-08-12T10:29:39.269Z,1.45
2018-08-12T10:32:07.833Z,1.17
2018-08-12T10:34:36.376Z,1.80
2018-08-12T10:37:04.897Z,1.45
2018-08-12T10:39:33.384Z,3.20
2018-08-12T10:42:01.974Z,1.70
2018-08-12T10:44:30.470Z,1.62
2018-08-12T10:46:58.973Z,1.27
2018-08-12T10:49:27.405Z,5.12
2018-08-12T10:51:55.953Z,3.10
2018-08-12T10:54:24.498Z,1.52
2018-08-12T10:56:53.019Z,3.35
2018-08-12T10:59:21.870Z,1.80
2018-08-12T11:01:50.419Z,1.80
2018-08-12T11:04:18.893Z,1.90
2018-08-12T11:06:49.340Z,2.00
2018-08-12T11:09:19.120Z,1.90
2018-08-12T11:11:47.765Z,1.40
2018-08-12T11:14:16.396Z,1.57
2018-08-12T11:16:44.921Z,1.57
2018-08-12T11:19:13.428Z,1.40
2018-08-12T11:21:42.074Z,1.27
2018-08-12T11:24:10.605Z,1.45
2018-08-12T11:26:39.084Z,1.52
2018-08-12T11:29:08.050Z,1.37
2018-08-12T11:31:36.637Z,1.30
2018-08-12T11:34:05.130Z,1.07
2018-08-12T11:36:33.644Z,1.30
2018-08-12T11:39:02.437Z,1.22
2018-08-12T11:41:30.923Z,1.20
2018-08-12T11:43:59.828Z,1.40
2018-08-12T11:46:29.273Z,1.25
2018-08-12T11:48:57.902Z,1.32
2018-08-12T11:51:26.397Z,1.30
2018-08-12T11:53:54.960Z,1.00
2018-08-12T11:56:23.521Z,1.20
2018-08-12T11:58:51.981Z,1.40
2018-08-12T12:01:20.437Z,1.47
2018-08-12T12:03:48.973Z,1.85
2018-08-12T12:06:17.412Z,1.55
2018-08-12T12:08:45.884Z,1.70
2018-08-12T12:11:14.321Z,1.15
2018-08-12T12:13:42.813Z,1.37
2018-08-12T12:16:11.286Z,1.42
2018-08-12T12:18:39.781Z,1.50
2018-08-12T12:21:08.248Z,1.62
2018-08-12T12:23:36.718Z,1.40
2018-08-12T12:26:05.222Z,1.40
2018-08-12T12:28:33.688Z,1.40
2018-08-12T12:31:02.185Z,1.35
2018-08-12T12:33:30.701Z,1.27
2018-08-12T12:35:59.207Z,1.50
2018-08-12T12:38:27.700Z,1.60
2018-08-12T12:40:56.154Z,1.52
2018-08-12T12:43:24.695Z,1.50
2018-08-12T12:45:53.161Z,1.47
2018-08-12T12:48:21.662Z,1.55
2018-08-12T12:50:50.142Z,1.47
2018-08-12T12:53:18.602Z,1.40
2018-08-12T12:55:47.064Z,1.30
2018-08-12T12:58:15.545Z,1.20
2018-08-12T13:00:43.997Z,1.50
2018-08-12T13:03:12.482Z,1.57
2018-08-12T13:05:40.961Z,1.92
2018-08-12T13:08:09.436Z,1.30
2018-08-12T13:10:37.864Z,2.12
2018-08-12T13:13:06.407Z,1.42
2018-08-12T13:15:34.877Z,1.80
2018-08-12T13:18:03.490Z,1.50
2018-08-12T13:20:31.983Z,1.47
2018-08-12T13:23:00.467Z,1.27
2018-08-12T13:25:28.968Z,1.50
2018-08-12T13:27:57.473Z,1.67
2018-08-12T13:30:25.978Z,1.50
2018-08-12T13:32:54.469Z,1.42
2018-08-12T13:35:22.944Z,1.10
2018-08-12T13:37:51.467Z,2.40
2018-08-12T13:40:19.997Z,1.50
2018-08-12T13:42:48.454Z,1.15
2018-08-12T13:45:16.960Z,1.30
2018-08-12T13:47:46.247Z,1.30
2018-08-12T13:50:19.571Z,1.40
2018-08-12T13:52:48.682Z,1.22
2018-08-12T13:55:17.404Z,1.30
2018-08-12T13:57:46.273Z,1.30
2018-08-12T14:00:16.421Z,1.50
2018-08-12T14:02:44.957Z,1.35
2018-08-12T14:05:15.441Z,1.47
2018-08-12T14:07:43.902Z,1.50
2018-08-12T14:10:12.546Z,1.52
2018-08-12T14:12:41.248Z,1.40
2018-08-12T14:15:12.417Z,1.50
2018-08-12T14:17:41.849Z,3.25
2018-08-12T14:20:11.557Z,2.10
2018-08-12T14:22:40.151Z,1.50
2018-08-12T14:25:09.330Z,3.00
2018-08-12T14:27:37.993Z,1.32
2018-08-12T14:30:08.853Z,1.52
2018-08-12T14:32:37.285Z,1.40
2018-08-12T14:35:06.313Z,1.55
2018-08-12T14:37:34.753Z,1.67
2018-08-12T14:40:03.338Z,1.50
2018-08-12T14:42:31.773Z,2.70
2018-08-12T14:45:00.237Z,1.47
2018-08-12T14:47:28.705Z,1.50
2018-08-12T14:49:57.185Z,1.30
2018-08-12T14:52:25.698Z,1.30
2018-08-12T14:54:54.211Z,1.40
2018-08-12T14:57:22.912Z,1.20
2018-08-12T14:59:51.449Z,1.47
2018-08-12T15:02:19.965Z,1.30
2018-08-12T15:04:48.440Z,1.57
2018-08-12T15:07:17.052Z,1.62
2018-08-12T15:09:45.459Z,1.20
2018-08-12T15:12:13.978Z,1.52
2018-08-12T15:14:42.453Z,1.45
2018-08-12T15:17:10.949Z,1.70
2018-08-12T15:19:39.439Z,1.42
2018-08-12T15:22:08.051Z,1.55
2018-08-12T15:24:36.548Z,1.82
2018-08-12T15:27:05.101Z,1.40
2018-08-12T15:29:33.573Z,1.32
2018-08-12T15:32:02.134Z,1.40
2018-08-12T15:34:30.589Z,1.60
2018-08-12T15:36:59.057Z,1.40
2018-08-12T15:39:27.544Z,1.87
2018-08-12T15:41:56.040Z,1.35
2018-08-12T15:44:24.533Z,1.50
2018-08-12T15:46:53.318Z,1.55
2018-08-12T15:49:21.758Z,1.37
2018-08-12T15:51:50.289Z,1.40
2018-08-12T15:54:18.752Z,1.37
2018-08-12T15:56:47.273Z,1.25
2018-08-12T15:59:15.777Z,1.60
2018-08-12T16:01:45.175Z,1.27
2018-08-12T16:04:13.630Z,1.40
2018-08-12T16:06:42.118Z,1.50
2018-08-12T16:09:11.681Z,1.70
2018-08-12T16:11:40.182Z,1.50
2018-08-12T16:14:09.193Z,2.35
2018-08-12T16:16:37.686Z,1.40
2018-08-12T16:19:06.185Z,1.60
2018-08-12T16:21:34.689Z,2.35
2018-08-12T16:24:03.156Z,1.60
2018-08-12T16:26:31.619Z,1.80
2018-08-12T16:29:00.134Z,1.70
2018-08-12T16:31:28.689Z,1.52
2018-08-12T16:33:57.154Z,1.42
2018-08-12T16:36:25.674Z,1.62
2018-08-12T16:38:54.161Z,1.60
2018-08-12T16:41:22.617Z,2.17
2018-08-12T16:43:51.092Z,1.70
2018-08-12T16:46:19.599Z,1.42
2018-08-12T16:48:48.134Z,1.52
2018-08-12T16:52:47.478Z,1.98
2018-08-12T16:55:18.413Z,1.77
2018-08-12T16:57:47.538Z,1.30
2018-08-12T17:00:17.483Z,1.70
2018-08-12T17:02:46.520Z,1.75
2018-08-12T17:05:16.569Z,2.30
2018-08-12T17:07:45.364Z,1.52
2018-08-12T17:10:15.061Z,1.60
2018-08-12T17:12:43.618Z,1.67
2018-08-12T17:15:15.061Z,1.60
2018-08-12T17:17:43.569Z,1.55
2018-08-12T17:20:13.496Z,1.70
2018-08-12T17:22:42.769Z,1.32
2018-08-12T17:25:13.449Z,1.80
2018-08-12T17:27:41.980Z,1.57
2018-08-12T17:30:11.673Z,1.65
2018-08-12T17:32:40.227Z,1.80
2018-08-12T17:35:09.484Z,2.00
2018-08-12T17:37:38.293Z,1.75
2018-08-12T17:40:10.045Z,1.87
2018-08-12T17:42:38.565Z,1.60
2018-08-12T17:45:08.457Z,2.00
2018-08-12T17:47:37.311Z,1.80
2018-08-12T17:50:06.649Z,1.67
2018-08-12T17:52:35.116Z,1.80
2018-08-12T17:55:03.624Z,1.50
2018-08-12T17:57:32.255Z,1.70
2018-08-12T18:00:01.426Z,1.90
2018-08-12T18:02:29.878Z,1.70
2018-08-12T18:04:58.313Z,2.20
2018-08-12T18:07:26.786Z,1.85
2018-08-12T18:09:56.149Z,1.72
2018-08-12T18:12:24.612Z,1.70
2018-08-12T18:14:54.017Z,1.77
2018-08-12T18:17:22.457Z,1.67
2018-08-12T18:19:51.653Z,1.50
2018-08-12T18:22:20.131Z,1.67
2018-08-12T18:24:48.616Z,1.60
2018-08-12T18:27:17.052Z,1.72
2018-08-12T18:29:45.556Z,1.92
2018-08-12T18:32:14.017Z,1.87
2018-08-12T18:34:42.611Z,1.50
2018-08-12T18:37:11.078Z,2.57
2018-08-12T18:39:39.545Z,1.67
2018-08-12T18:42:10.979Z,1.80
2018-08-12T18:44:39.441Z,2.10
2018-08-12T18:47:07.941Z,2.33
2018-08-12T18:49:36.450Z,2.33
2018-08-12T18:52:05.003Z,6.00
2018-08-12T18:54:34.173Z,3.47
2018-08-12T18:57:03.620Z,2.20
2018-08-12T18:59:32.147Z,2.77
2018-08-12T19:02:01.609Z,2.10
2018-08-12T19:04:31.064Z,1.90
2018-08-12T19:06:59.601Z,2.10
2018-08-12T19:09:28.622Z,2.23
2018-08-12T19:11:57.101Z,1.70
2018-08-12T19:14:25.881Z,1.90
2018-08-12T19:16:54.346Z,2.37
2018-08-12T19:19:22.811Z,2.50
2018-08-12T19:21:51.297Z,1.70
2018-08-12T19:24:21.372Z,1.80
2018-08-12T19:26:49.809Z,1.90
2018-08-12T19:29:18.295Z,2.23
2018-08-12T19:33:15.917Z,2.27
2018-08-12T19:35:44.421Z,2.50
2018-08-12T19:38:12.888Z,2.30
2018-08-12T19:40:41.396Z,2.73
2018-08-12T19:43:09.927Z,2.40
2018-08-12T19:45:38.414Z,2.00
2018-08-12T19:48:06.884Z,2.07
2018-08-12T19:50:35.392Z,2.10
2018-08-12T19:53:03.986Z,2.50
2018-08-12T19:55:32.480Z,2.50
2018-08-12T19:58:00.961Z,2.30
2018-08-12T20:00:29.523Z,2.93
2018-08-12T20:02:58.047Z,3.00
2018-08-12T20:05:26.542Z,2.80
2018-08-12T20:07:55.013Z,2.90
2018-08-12T20:10:23.489Z,4.07
2018-08-12T20:12:52.001Z,2.60
2018-08-12T20:15:20.517Z,2.97
2018-08-12T20:17:49.111Z,3.00
2018-08-12T20:20:17.633Z,4.00
2018-08-12T20:22:46.153Z,3.43
2018-08-12T20:25:14.690Z,3.50
2018-08-12T20:27:43.481Z,3.20
2018-08-12T20:30:12.842Z,3.67
2018-08-12T20:32:41.812Z,3.10
2018-08-12T20:35:10.378Z,3.00
2018-08-12T20:37:38.882Z,3.43
2018-08-12T20:40:07.920Z,2.70
2018-08-12T20:42:36.384Z,2.60
2018-08-12T20:45:05.445Z,2.80
2018-08-12T20:47:33.982Z,4.40
2018-08-12T20:50:02.797Z,4.17
2018-08-12T20:52:31.274Z,3.03
2018-08-12T20:54:59.788Z,3.97
2018-08-12T20:57:28.261Z,4.10
2018-08-12T20:59:56.798Z,2.30
2018-08-12T21:02:26.151Z,2.80
2018-08-12T21:04:54.618Z,2.57
2018-08-12T21:07:23.112Z,2.30
2018-08-12T21:09:52.010Z,3.20
2018-08-12T21:12:20.529Z,2.70
2018-08-12T21:14:49.821Z,4.60
2018-08-12T21:17:18.318Z,4.57
2018-08-12T21:19:46.773Z,4.30
2018-08-12T21:22:15.293Z,3.93
2018-08-12T21:24:43.785Z,4.47
2018-08-12T21:27:12.276Z,8.70
2018-08-12T21:29:40.739Z,4.80
2018-08-12T21:32:09.573Z,5.13
2018-08-12T21:34:38.072Z,4.90
2018-08-12T21:37:06.613Z,8.37
2018-08-12T21:39:35.157Z,5.97
2018-08-12T21:42:03.673Z,5.73
2018-08-12T21:44:32.121Z,6.37
2018-08-12T21:47:00.657Z,6.20
2018-08-12T21:49:29.158Z,4.03
2018-08-12T21:51:57.665Z,3.93
2018-08-12T21:54:26.162Z,8.33
2018-08-12T21:56:54.683Z,6.47
2018-08-12T21:59:23.223Z,4.07
2018-08-12T22:01:51.849Z,5.63
2018-08-12T22:04:20.385Z,4.13
2018-08-12T22:06:49.574Z,3.30
2018-08-12T22:09:18.070Z,2.83
2018-08-12T22:11:46.572Z,3.03
2018-08-12T22:14:15.053Z,2.87
2018-08-12T22:16:43.644Z,3.97
2018-08-12T22:19:12.120Z,2.70
2018-08-12T22:21:40.625Z,3.00
2018-08-12T22:24:09.117Z,3.00
2018-08-12T22:26:37.625Z,2.87
2018-08-12T22:29:06.357Z,3.10
2018-08-12T22:31:34.927Z,3.10
2018-08-12T22:34:03.428Z,2.83
2018-08-12T22:36:31.956Z,3.07
2018-08-12T22:39:00.489Z,3.50
2018-08-12T22:41:28.993Z,3.13
2018-08-12T22:43:57.508Z,2.77
2018-08-12T22:46:25.989Z,2.73
2018-08-12T22:48:54.453Z,3.20
2018-08-12T22:51:22.932Z,3.83
2018-08-12T22:53:51.430Z,3.17
2018-08-12T22:56:19.898Z,3.40
2018-08-12T22:58:48.432Z,4.03
2018-08-12T23:01:16.977Z,3.47
2018-08-12T23:03:45.497Z,3.53
2018-08-12T23:06:14.011Z,2.87
2018-08-12T23:08:42.559Z,3.73
2018-08-12T23:11:11.028Z,3.23
2018-08-12T23:13:39.504Z,3.73
2018-08-12T23:16:20.522Z,3.47
2018-08-12T23:18:49.046Z,2.83
2018-08-12T23:21:18.469Z,2.83
2018-08-12T23:23:52.952Z,2.80
2018-08-12T23:26:22.705Z,2.80
2018-08-12T23:28:51.248Z,2.80
2018-08-12T23:31:19.738Z,3.20
2018-08-12T23:33:48.289Z,3.30
2018-08-12T23:36:16.801Z,3.10
2018-08-12T23:38:45.289Z,2.80
2018-08-12T23:41:14.046Z,2.90
2018-08-12T23:43:42.579Z,3.30
2018-08-12T23:46:11.725Z,3.47
2018-08-12T23:48:40.272Z,2.90
2018-08-12T23:51:08.977Z,3.10
2018-08-12T23:53:37.494Z,2.83
2018-08-12T23:56:06.029Z,2.70
2018-08-12T23:58:34.539Z,3.10
